createdAt,value
2016-03-23T00:03:09.240Z,0
2016-03-23T00:06:21.138Z,0
2016-03-23T00:09:32.945Z,0
2016-03-23T00:12:50.907Z,0
2016-03-23T00:15:51.774Z,0
2016-03-23T00:19:03.689Z,0
2016-03-23T00:22:15.510Z,0
2016-03-23T00:25:24.893Z,0
2016-03-23T00:28:36.872Z,0
2016-03-23T00:31:54.461Z,0
2016-03-23T00:34:55.266Z,0
2016-03-23T00:38:03.618Z,0
2016-03-23T00:41:15.470Z,0
2016-03-23T00:44:25.634Z,0
2016-03-23T00:47:35.503Z,0
2016-03-23T00:50:53.372Z,0
2016-03-23T00:53:54.489Z,0
2016-03-23T00:57:06.310Z,0
2016-03-23T01:00:17.021Z,0
2016-03-23T01:03:28.702Z,0
2016-03-23T01:06:40.321Z,0
2016-03-23T01:09:52.422Z,0
2016-03-23T01:13:04.025Z,0
2016-03-23T01:16:11.954Z,0
2016-03-23T01:19:23.728Z,0
2016-03-23T01:22:33.098Z,0
2016-03-23T01:25:47.810Z,0
2016-03-23T01:28:54.661Z,0
2016-03-23T01:31:55.372Z,0
2016-03-23T01:35:06.100Z,0
2016-03-23T01:38:14.717Z,0
2016-03-23T01:41:26.709Z,0
2016-03-23T01:44:34.876Z,0
2016-03-23T01:47:49.009Z,0
2016-03-23T01:50:55.861Z,0
2016-03-23T01:53:56.556Z,0
2016-03-23T01:57:06.018Z,0
2016-03-23T02:00:20.089Z,0
2016-03-23T02:03:27.941Z,0
2016-03-23T02:06:39.546Z,0
2016-03-23T02:09:51.245Z,0
2016-03-23T02:13:00.801Z,0
2016-03-23T02:16:12.480Z,0
2016-03-23T02:19:24.066Z,0
2016-03-23T02:22:36.083Z,0
2016-03-23T02:25:53.076Z,0
2016-03-23T02:28:54.052Z,0
2016-03-23T02:32:05.780Z,0
2016-03-23T02:35:16.474Z,0
2016-03-23T02:38:27.388Z,0
2016-03-23T02:41:39.056Z,0
2016-03-23T02:44:56.829Z,0
2016-03-23T02:47:57.619Z,0
2016-03-23T02:51:09.548Z,0
2016-03-23T02:54:19.478Z,0
2016-03-23T02:57:31.240Z,0
2016-03-23T03:00:49.138Z,0
2016-03-23T03:03:56.240Z,0
2016-03-23T03:06:57.233Z,0
2016-03-23T03:10:09.241Z,0
2016-03-23T03:13:20.529Z,0
2016-03-23T03:16:31.104Z,0
2016-03-23T03:19:40.704Z,0
2016-03-23T03:22:52.556Z,0
2016-03-23T03:26:02.345Z,0
2016-03-23T03:29:14.354Z,0
2016-03-23T03:32:26.206Z,0
2016-03-23T03:35:38.061Z,0
2016-03-23T03:38:54.131Z,0
2016-03-23T03:41:54.905Z,0
2016-03-23T03:45:05.539Z,0
2016-03-23T03:48:17.281Z,0
2016-03-23T03:51:29.180Z,0
2016-03-23T03:54:41.035Z,0
2016-03-23T03:57:52.871Z,0
2016-03-23T04:01:02.926Z,0
2016-03-23T04:04:12.715Z,0
2016-03-23T04:07:25.504Z,0
2016-03-23T04:10:32.967Z,0
2016-03-23T04:13:50.758Z,0
2016-03-23T04:16:51.594Z,0
2016-03-23T04:20:03.476Z,0
2016-03-23T04:23:15.265Z,0
2016-03-23T04:26:26.554Z,0
2016-03-23T04:29:37.253Z,0
2016-03-23T04:32:55.105Z,1
2016-03-23T04:35:58.003Z,1
2016-03-23T04:39:07.731Z,2
2016-03-23T04:42:19.551Z,5
2016-03-23T04:45:29.247Z,7
2016-03-23T04:48:41.102Z,10
2016-03-23T04:51:53.359Z,15
2016-03-23T04:55:03.118Z,23
2016-03-23T04:58:14.954Z,31
2016-03-23T05:01:26.946Z,40
2016-03-23T05:04:35.519Z,55
2016-03-23T05:07:50.231Z,69
2016-03-23T05:10:57.145Z,86
2016-03-23T05:13:57.918Z,102
2016-03-23T05:17:09.695Z,114
2016-03-23T05:20:21.328Z,160
2016-03-23T05:23:31.539Z,186
2016-03-23T05:26:47.883Z,198
2016-03-23T05:29:54.620Z,220
2016-03-23T05:32:55.440Z,225
2016-03-23T05:36:07.259Z,272
2016-03-23T05:39:21.266Z,332
2016-03-23T05:42:30.883Z,375
2016-03-23T05:45:39.348Z,501
2016-03-23T05:48:57.277Z,577
2016-03-23T05:51:58.067Z,627
2016-03-23T05:55:09.418Z,672
2016-03-23T05:58:21.209Z,620
2016-03-23T06:01:32.045Z,623
2016-03-23T06:04:50.008Z,791
2016-03-23T06:07:56.707Z,808
2016-03-23T06:10:57.419Z,1039
2016-03-23T06:14:08.037Z,965
2016-03-23T06:17:19.934Z,919
2016-03-23T06:20:28.928Z,1125
2016-03-23T06:23:40.235Z,893
2016-03-23T06:26:55.853Z,1065
2016-03-23T06:29:56.719Z,1122
2016-03-23T06:33:06.478Z,997
2016-03-23T06:36:16.752Z,897
2016-03-23T06:39:26.088Z,872
2016-03-23T06:42:36.036Z,802
2016-03-23T06:45:51.357Z,895
2016-03-23T06:48:52.067Z,1087
2016-03-23T06:52:03.888Z,1261
2016-03-23T06:55:14.912Z,1109
2016-03-23T06:58:25.608Z,1555
2016-03-23T07:01:37.275Z,1599
2016-03-23T07:04:52.064Z,1475
2016-03-23T07:07:52.665Z,1422
2016-03-23T07:11:01.190Z,1655
2016-03-23T07:14:12.729Z,1696
2016-03-23T07:17:24.425Z,1545
2016-03-23T07:20:36.622Z,1358
2016-03-23T07:23:54.553Z,1543
2016-03-23T07:26:55.545Z,1450
2016-03-23T07:30:07.616Z,1518
2016-03-23T07:33:19.483Z,1575
2016-03-23T07:36:31.038Z,1958
2016-03-23T07:39:41.517Z,1724
2016-03-23T07:42:53.447Z,1717
2016-03-23T07:46:05.362Z,1306
2016-03-23T07:49:17.229Z,1282
2016-03-23T07:52:28.362Z,1174
2016-03-23T07:55:39.982Z,1797
2016-03-23T07:58:51.788Z,2205
2016-03-23T08:02:03.702Z,2124
2016-03-23T08:05:13.725Z,2340
2016-03-23T08:08:25.390Z,2109
2016-03-23T08:11:35.337Z,2523
2016-03-23T08:14:52.190Z,2921
2016-03-23T08:17:53.104Z,2513
2016-03-23T08:21:05.003Z,2410
2016-03-23T08:24:15.292Z,2200
2016-03-23T08:27:27.269Z,2547
2016-03-23T08:30:39.170Z,2380
2016-03-23T08:33:54.913Z,2835
2016-03-23T08:36:55.733Z,2943
2016-03-23T08:40:07.523Z,2761
2016-03-23T08:43:19.499Z,3251
2016-03-23T08:46:28.289Z,3766
2016-03-23T08:49:38.534Z,3643
2016-03-23T08:52:53.620Z,2855
2016-03-23T08:55:54.628Z,4154
2016-03-23T08:59:06.589Z,5785
2016-03-23T09:02:18.317Z,6191
2016-03-23T09:05:30.527Z,5637
2016-03-23T09:08:48.819Z,7736
2016-03-23T09:11:55.905Z,7400
2016-03-23T09:14:57.085Z,7621
2016-03-23T09:18:07.000Z,7311
2016-03-23T09:21:17.226Z,9498
2016-03-23T09:24:26.157Z,8618
2016-03-23T09:27:37.464Z,13973
2016-03-23T09:30:55.800Z,10286
2016-03-23T09:33:57.215Z,384
2016-03-23T09:37:08.051Z,384
2016-03-23T09:40:20.793Z,13569
2016-03-23T09:43:32.926Z,13872
2016-03-23T09:46:50.922Z,13675
2016-03-23T09:49:52.164Z,11630
2016-03-23T09:53:01.265Z,14839
2016-03-23T09:56:13.462Z,12458
2016-03-23T09:59:21.986Z,8627
2016-03-23T10:02:34.133Z,10125
2016-03-23T10:05:52.550Z,10016
2016-03-23T10:08:54.606Z,7111
2016-03-23T10:12:02.191Z,6121
2016-03-23T10:15:14.278Z,6402
2016-03-23T10:18:23.645Z,6687
2016-03-23T10:21:33.451Z,6253
2016-03-23T10:24:51.446Z,3198
2016-03-23T10:27:52.359Z,2451
2016-03-23T10:31:02.664Z,2117
2016-03-23T10:34:13.922Z,2092
2016-03-23T10:37:23.618Z,2350
2016-03-23T10:40:33.642Z,2896
2016-03-23T10:43:51.246Z,4061
2016-03-23T10:46:52.068Z,5385
2016-03-23T10:50:03.434Z,7418
2016-03-23T10:53:14.817Z,7906
2016-03-23T10:56:26.701Z,7324
2016-03-23T10:59:36.365Z,6870
2016-03-23T11:02:54.412Z,7038
2016-03-23T11:05:55.498Z,5405
2016-03-23T11:09:05.444Z,4528
2016-03-23T11:12:17.593Z,5025
2016-03-23T11:15:29.506Z,4925
2016-03-23T11:18:38.971Z,4510
2016-03-23T11:21:55.557Z,4556
2016-03-23T11:24:56.580Z,4182
2016-03-23T11:28:06.401Z,3179
2016-03-23T11:31:18.316Z,3609
2016-03-23T11:34:30.402Z,4193
2016-03-23T11:37:48.522Z,6699
2016-03-23T11:40:55.670Z,6116
2016-03-23T11:43:56.834Z,5275
2016-03-23T11:47:08.718Z,4778
2016-03-23T11:50:20.710Z,4751
2016-03-23T11:53:32.531Z,3697
2016-03-23T11:56:50.464Z,3599
2016-03-23T11:59:57.503Z,3475
2016-03-23T12:02:58.355Z,3721
2016-03-23T12:06:10.269Z,3446
2016-03-23T12:09:22.214Z,3086
2016-03-23T12:12:34.207Z,3621
2016-03-23T12:15:50.265Z,4252
2016-03-23T12:18:57.179Z,4487
2016-03-23T12:21:58.109Z,4436
2016-03-23T12:25:07.148Z,4425
2016-03-23T12:28:15.344Z,4923
2016-03-23T12:31:26.227Z,4045
2016-03-23T12:34:36.578Z,5425
2016-03-23T12:37:54.464Z,3999
2016-03-23T12:40:55.535Z,4301
2016-03-23T12:44:07.496Z,4411
2016-03-23T12:47:19.566Z,4400
2016-03-23T12:50:31.668Z,3734
2016-03-23T12:53:49.445Z,3037
2016-03-23T12:56:56.515Z,2575
2016-03-23T12:59:57.461Z,3421
2016-03-23T13:03:08.250Z,3640
2016-03-23T13:06:20.117Z,3310
2016-03-23T13:09:28.580Z,3137
2016-03-23T13:12:40.418Z,3257
2016-03-23T13:15:52.394Z,3199
2016-03-23T13:19:04.435Z,3054
2016-03-23T13:22:16.521Z,3060
2016-03-23T13:25:28.465Z,2853
2016-03-23T13:28:40.820Z,3231
2016-03-23T13:31:52.687Z,3381
2016-03-23T13:35:02.508Z,3273
2016-03-23T13:38:14.688Z,3749
2016-03-23T13:41:24.134Z,3542
2016-03-23T13:44:35.674Z,3363
2016-03-23T13:47:53.965Z,2455
2016-03-23T13:50:55.067Z,2045
2016-03-23T13:54:07.309Z,2080
2016-03-23T13:57:18.692Z,2392
2016-03-23T14:00:29.201Z,3371
2016-03-23T14:03:41.320Z,3623
2016-03-23T14:06:55.985Z,3585
2016-03-23T14:09:57.008Z,3386
2016-03-23T14:13:06.908Z,3330
2016-03-23T14:16:18.821Z,4121
2016-03-23T14:19:30.924Z,4517
2016-03-23T14:22:48.753Z,3834
2016-03-23T14:25:55.794Z,3624
2016-03-23T14:28:56.992Z,3794
2016-03-23T14:32:09.088Z,3421
2016-03-23T14:35:18.479Z,3131
2016-03-23T14:38:27.623Z,2661
2016-03-23T14:41:36.346Z,2840
2016-03-23T14:44:53.762Z,3015
2016-03-23T14:47:55.723Z,2897
2016-03-23T14:51:04.559Z,2619
2016-03-23T14:54:14.177Z,2548
2016-03-23T14:57:26.216Z,2562
2016-03-23T15:00:38.052Z,2538
2016-03-23T15:03:54.453Z,2331
2016-03-23T15:06:55.414Z,2086
2016-03-23T15:10:04.594Z,1887
2016-03-23T15:13:16.634Z,1917
2016-03-23T15:16:27.971Z,1919
2016-03-23T15:19:39.259Z,1846
2016-03-23T15:22:57.457Z,1858
2016-03-23T15:25:58.544Z,1627
2016-03-23T15:29:08.645Z,1741
2016-03-23T15:32:20.372Z,1517
2016-03-23T15:35:29.271Z,1868
2016-03-23T15:38:40.419Z,2066
2016-03-23T15:41:57.963Z,2115
2016-03-23T15:44:59.079Z,1916
2016-03-23T15:48:11.571Z,1947
2016-03-23T15:51:21.704Z,1642
2016-03-23T15:54:33.384Z,1363
2016-03-23T15:57:51.567Z,1151
2016-03-23T16:00:52.673Z,1177
2016-03-23T16:04:04.837Z,979
2016-03-23T16:07:16.830Z,827
2016-03-23T16:10:28.962Z,777
2016-03-23T16:13:39.330Z,677
2016-03-23T16:16:57.372Z,562
2016-03-23T16:19:58.224Z,446
2016-03-23T16:23:10.107Z,371
2016-03-23T16:26:21.960Z,344
2016-03-23T16:29:34.029Z,351
2016-03-23T16:32:51.884Z,416
2016-03-23T16:35:52.986Z,493
2016-03-23T16:39:02.509Z,454
2016-03-23T16:42:14.486Z,369
2016-03-23T16:45:24.150Z,351
2016-03-23T16:48:34.878Z,368
2016-03-23T16:51:52.685Z,324
2016-03-23T16:54:53.756Z,257
2016-03-23T16:58:05.810Z,218
2016-03-23T17:01:17.928Z,192
2016-03-23T17:04:29.982Z,193
2016-03-23T17:07:39.149Z,222
2016-03-23T17:10:57.112Z,204
2016-03-23T17:13:58.120Z,152
2016-03-23T17:17:08.613Z,90
2016-03-23T17:20:19.777Z,74
2016-03-23T17:23:31.737Z,65
2016-03-23T17:26:49.452Z,54
2016-03-23T17:29:56.444Z,34
2016-03-23T17:32:57.422Z,23
2016-03-23T17:36:06.945Z,18
2016-03-23T17:39:19.203Z,8
2016-03-23T17:42:29.305Z,5
2016-03-23T17:45:38.829Z,4
2016-03-23T17:48:56.949Z,2
2016-03-23T17:51:57.926Z,2
2016-03-23T17:55:09.949Z,1
2016-03-23T17:58:19.848Z,1
2016-03-23T18:01:32.684Z,0
2016-03-23T18:04:42.395Z,0
2016-03-23T18:07:54.451Z,1
2016-03-23T18:11:06.446Z,1
2016-03-23T18:14:18.173Z,1
2016-03-23T18:17:30.243Z,1
2016-03-23T18:20:39.782Z,1
2016-03-23T18:23:57.544Z,1
2016-03-23T18:26:58.551Z,1
2016-03-23T18:30:10.637Z,1
2016-03-23T18:33:22.756Z,1
2016-03-23T18:36:36.622Z,1
2016-03-23T18:39:52.286Z,1
2016-03-23T18:42:53.247Z,1
2016-03-23T18:46:05.290Z,1
2016-03-23T18:49:16.611Z,1
2016-03-23T18:52:25.978Z,1
2016-03-23T18:55:35.393Z,0
2016-03-23T18:58:53.135Z,1
2016-03-23T19:01:54.299Z,1
2016-03-23T19:05:05.701Z,1
2016-03-23T19:08:17.834Z,1
2016-03-23T19:11:31.748Z,1
2016-03-23T19:14:41.584Z,1
2016-03-23T19:17:57.295Z,1
2016-03-23T19:20:58.177Z,1
2016-03-23T19:24:10.095Z,1
2016-03-23T19:27:22.103Z,1
2016-03-23T19:30:33.611Z,1
2016-03-23T19:33:51.604Z,1
2016-03-23T19:36:58.581Z,1
2016-03-23T19:39:59.573Z,1
2016-03-23T19:43:11.569Z,1
2016-03-23T19:46:23.498Z,1
2016-03-23T19:49:35.006Z,1
2016-03-23T19:52:49.499Z,1
2016-03-23T19:55:56.491Z,1
2016-03-23T19:58:57.421Z,1
2016-03-23T20:02:09.133Z,1
2016-03-23T20:05:20.284Z,1
2016-03-23T20:08:32.167Z,1
2016-03-23T20:11:42.237Z,1
2016-03-23T20:14:53.770Z,1
2016-03-23T20:18:05.610Z,1
2016-03-23T20:21:17.121Z,1
2016-03-23T20:24:28.567Z,1
2016-03-23T20:27:40.809Z,1
2016-03-23T20:30:55.770Z,1
2016-03-23T20:33:56.778Z,1
2016-03-23T20:37:08.505Z,1
2016-03-23T20:40:20.345Z,1
2016-03-23T20:43:32.711Z,1
2016-03-23T20:46:50.500Z,1
2016-03-23T20:49:58.071Z,1
2016-03-23T20:52:58.313Z,1
2016-03-23T20:56:10.165Z,1
2016-03-23T20:59:19.583Z,1
2016-03-23T21:02:29.107Z,1
2016-03-23T21:05:38.974Z,1
2016-03-23T21:08:55.236Z,1
2016-03-23T21:11:55.964Z,1
2016-03-23T21:15:07.830Z,1
2016-03-23T21:18:19.295Z,1
2016-03-23T21:21:31.163Z,1
2016-03-23T21:24:43.155Z,1
2016-03-23T21:27:54.788Z,1
2016-03-23T21:31:06.140Z,1
2016-03-23T21:34:18.166Z,1
2016-03-23T21:37:29.923Z,1
2016-03-23T21:40:42.104Z,1
2016-03-23T21:43:58.269Z,1
2016-03-23T21:46:59.230Z,1
2016-03-23T21:50:10.160Z,1
2016-03-23T21:53:20.357Z,1
2016-03-23T21:56:30.459Z,1
2016-03-23T21:59:42.701Z,1
2016-03-23T22:02:54.553Z,1
2016-03-23T22:06:04.765Z,1
2016-03-23T22:09:16.759Z,1
2016-03-23T22:12:28.627Z,1
2016-03-23T22:15:38.869Z,1
2016-03-23T22:18:56.752Z,1
2016-03-23T22:21:57.636Z,1
2016-03-23T22:25:09.425Z,1
2016-03-23T22:28:21.405Z,1
2016-03-23T22:31:33.413Z,1
2016-03-23T22:34:51.327Z,1
2016-03-23T22:37:58.273Z,1
2016-03-23T22:40:59.140Z,1
2016-03-23T22:44:10.680Z,1
2016-03-23T22:47:22.722Z,1
2016-03-23T22:50:34.792Z,1
2016-03-23T22:53:42.847Z,0
2016-03-23T22:56:58.824Z,0
2016-03-23T22:59:59.723Z,0
2016-03-23T23:03:08.184Z,0
2016-03-23T23:06:20.210Z,0
2016-03-23T23:09:29.405Z,0
2016-03-23T23:12:41.633Z,0
2016-03-23T23:15:59.297Z,0
2016-03-23T23:19:00.008Z,0
2016-03-23T23:22:09.579Z,0
2016-03-23T23:25:18.277Z,0
2016-03-23T23:28:29.844Z,0
2016-03-23T23:31:41.061Z,0
2016-03-23T23:34:55.891Z,0
2016-03-23T23:37:56.614Z,0
2016-03-23T23:41:08.465Z,0
2016-03-23T23:44:17.708Z,0
2016-03-23T23:47:29.762Z,0
2016-03-23T23:50:38.129Z,0
2016-03-23T23:53:53.279Z,0
2016-03-23T23:56:54.145Z,0
